sensor_id;sensor_type;location;lat;lon;timestamp;P1;durP1;ratioP1;P2;durP2;ratioP2
1106;SDS011;540;49.448;8.612;2022-08-06T00:00:16;4.88;;;1.10;;
1106;SDS011;540;49.448;8.612;2022-08-06T00:02:51;4.22;;;1.10;;
1106;SDS011;540;49.448;8.612;2022-08-06T00:05:19;1.40;;;0.75;;
1106;SDS011;540;49.448;8.612;2022-08-06T00:07:57;2.45;;;1.20;;
1106;SDS011;540;49.448;8.612;2022-08-06T00:10:27;2.97;;;1.23;;
1106;SDS011;540;49.448;8.612;2022-08-06T00:12:57;2.42;;;1.00;;
1106;SDS011;540;49.448;8.612;2022-08-06T00:15:30;1.80;;;1.15;;
1106;SDS011;540;49.448;8.612;2022-08-06T00:18:18;1.75;;;1.20;;
1106;SDS011;540;49.448;8.612;2022-08-06T00:20:45;3.55;;;1.10;;
1106;SDS011;540;49.448;8.612;2022-08-06T00:23:16;3.88;;;1.10;;
1106;SDS011;540;49.448;8.612;2022-08-06T00:25:49;2.90;;;0.95;;
1106;SDS011;540;49.448;8.612;2022-08-06T00:28:20;2.08;;;1.00;;
1106;SDS011;540;49.448;8.612;2022-08-06T00:30:56;1.23;;;0.82;;
1106;SDS011;540;49.448;8.612;2022-08-06T00:33:26;1.23;;;1.00;;
1106;SDS011;540;49.448;8.612;2022-08-06T00:36:14;3.00;;;0.98;;
1106;SDS011;540;49.448;8.612;2022-08-06T00:38:42;1.52;;;1.10;;
1106;SDS011;540;49.448;8.612;2022-08-06T00:41:12;1.65;;;1.00;;
1106;SDS011;540;49.448;8.612;2022-08-06T00:43:43;1.38;;;1.00;;
1106;SDS011;540;49.448;8.612;2022-08-06T00:46:13;3.55;;;1.00;;
1106;SDS011;540;49.448;8.612;2022-08-06T00:48:42;2.85;;;1.10;;
1106;SDS011;540;49.448;8.612;2022-08-06T00:51:19;2.05;;;1.20;;
1106;SDS011;540;49.448;8.612;2022-08-06T00:53:47;3.40;;;1.08;;
1106;SDS011;540;49.448;8.612;2022-08-06T00:56:23;2.38;;;1.27;;
1106;SDS011;540;49.448;8.612;2022-08-06T00:58:55;3.10;;;1.10;;
1106;SDS011;540;49.448;8.612;2022-08-06T01:01:29;1.55;;;1.30;;
1106;SDS011;540;49.448;8.612;2022-08-06T01:04:16;4.75;;;1.45;;
1106;SDS011;540;49.448;8.612;2022-08-06T01:06:44;3.33;;;2.28;;
1106;SDS011;540;49.448;8.612;2022-08-06T01:09:23;2.85;;;1.30;;
1106;SDS011;540;49.448;8.612;2022-08-06T01:11:51;1.67;;;1.23;;
1106;SDS011;540;49.448;8.612;2022-08-06T01:14:26;3.35;;;1.35;;
1106;SDS011;540;49.448;8.612;2022-08-06T01:17:06;2.05;;;1.30;;
1106;SDS011;540;49.448;8.612;2022-08-06T01:19:50;2.47;;;1.00;;
1106;SDS011;540;49.448;8.612;2022-08-06T01:22:44;3.05;;;1.23;;
1106;SDS011;540;49.448;8.612;2022-08-06T01:31:07;1.88;;;1.60;;
1106;SDS011;540;49.448;8.612;2022-08-06T01:33:38;2.40;;;1.13;;
1106;SDS011;540;49.448;8.612;2022-08-06T01:36:14;2.30;;;1.25;;
1106;SDS011;540;49.448;8.612;2022-08-06T01:38:53;1.95;;;1.40;;
1106;SDS011;540;49.448;8.612;2022-08-06T01:41:32;1.83;;;1.05;;
1106;SDS011;540;49.448;8.612;2022-08-06T01:44:27;3.50;;;1.48;;
1106;SDS011;540;49.448;8.612;2022-08-06T01:47:00;4.70;;;1.45;;
1106;SDS011;540;49.448;8.612;2022-08-06T01:49:43;2.50;;;1.55;;
1106;SDS011;540;49.448;8.612;2022-08-06T01:54:58;6.97;;;3.88;;
1106;SDS011;540;49.448;8.612;2022-08-06T01:57:30;2.05;;;1.45;;
1106;SDS011;540;49.448;8.612;2022-08-06T02:00:23;3.03;;;1.60;;
1106;SDS011;540;49.448;8.612;2022-08-06T02:02:55;3.53;;;1.83;;
1106;SDS011;540;49.448;8.612;2022-08-06T02:05:25;4.15;;;1.92;;
1106;SDS011;540;49.448;8.612;2022-08-06T02:07:57;3.35;;;1.63;;
1106;SDS011;540;49.448;8.612;2022-08-06T02:10:47;3.58;;;1.70;;
1106;SDS011;540;49.448;8.612;2022-08-06T02:13:18;3.05;;;1.73;;
1106;SDS011;540;49.448;8.612;2022-08-06T02:15:50;1.98;;;1.60;;
1106;SDS011;540;49.448;8.612;2022-08-06T02:18:25;4.25;;;1.70;;
1106;SDS011;540;49.448;8.612;2022-08-06T02:21:02;3.80;;;1.52;;
1106;SDS011;540;49.448;8.612;2022-08-06T02:23:54;3.40;;;1.40;;
1106;SDS011;540;49.448;8.612;2022-08-06T02:26:23;4.10;;;1.30;;
1106;SDS011;540;49.448;8.612;2022-08-06T02:28:58;1.92;;;1.35;;
1106;SDS011;540;49.448;8.612;2022-08-06T02:31:28;2.78;;;1.50;;
1106;SDS011;540;49.448;8.612;2022-08-06T02:34:16;4.63;;;1.48;;
1106;SDS011;540;49.448;8.612;2022-08-06T02:36:55;3.88;;;2.03;;
1106;SDS011;540;49.448;8.612;2022-08-06T02:39:26;2.38;;;1.45;;
1106;SDS011;540;49.448;8.612;2022-08-06T02:42:18;2.38;;;1.50;;
1106;SDS011;540;49.448;8.612;2022-08-06T02:44:55;3.72;;;1.73;;
1106;SDS011;540;49.448;8.612;2022-08-06T02:47:31;4.13;;;1.52;;
1106;SDS011;540;49.448;8.612;2022-08-06T02:50:26;2.42;;;1.23;;
1106;SDS011;540;49.448;8.612;2022-08-06T02:53:02;2.65;;;1.40;;
1106;SDS011;540;49.448;8.612;2022-08-06T02:55:51;2.25;;;1.40;;
1106;SDS011;540;49.448;8.612;2022-08-06T02:58:23;4.45;;;1.48;;
1106;SDS011;540;49.448;8.612;2022-08-06T03:01:05;3.95;;;1.23;;
1106;SDS011;540;49.448;8.612;2022-08-06T03:03:37;5.05;;;1.67;;
1106;SDS011;540;49.448;8.612;2022-08-06T03:06:24;4.40;;;1.73;;
1106;SDS011;540;49.448;8.612;2022-08-06T03:08:56;3.40;;;1.33;;
1106;SDS011;540;49.448;8.612;2022-08-06T03:11:28;3.20;;;1.25;;
1106;SDS011;540;49.448;8.612;2022-08-06T03:14:00;3.83;;;1.90;;
1106;SDS011;540;49.448;8.612;2022-08-06T03:16:50;2.80;;;1.80;;
1106;SDS011;540;49.448;8.612;2022-08-06T03:19:24;3.13;;;1.30;;
1106;SDS011;540;49.448;8.612;2022-08-06T03:22:13;2.90;;;1.90;;
1106;SDS011;540;49.448;8.612;2022-08-06T03:25:01;3.88;;;1.70;;
1106;SDS011;540;49.448;8.612;2022-08-06T03:27:33;2.70;;;1.55;;
1106;SDS011;540;49.448;8.612;2022-08-06T03:30:10;3.28;;;1.60;;
1106;SDS011;540;49.448;8.612;2022-08-06T03:32:57;5.32;;;1.70;;
1106;SDS011;540;49.448;8.612;2022-08-06T03:35:40;3.72;;;1.50;;
1106;SDS011;540;49.448;8.612;2022-08-06T03:38:16;1.52;;;1.33;;
1106;SDS011;540;49.448;8.612;2022-08-06T03:40:45;1.95;;;1.40;;
1106;SDS011;540;49.448;8.612;2022-08-06T03:43:14;2.38;;;1.40;;
1106;SDS011;540;49.448;8.612;2022-08-06T03:45:56;2.92;;;1.52;;
1106;SDS011;540;49.448;8.612;2022-08-06T03:48:28;2.05;;;1.50;;
1106;SDS011;540;49.448;8.612;2022-08-06T03:51:06;4.90;;;1.48;;
1106;SDS011;540;49.448;8.612;2022-08-06T03:53:39;6.50;;;3.80;;
1106;SDS011;540;49.448;8.612;2022-08-06T03:56:15;4.07;;;1.77;;
1106;SDS011;540;49.448;8.612;2022-08-06T03:58:56;2.28;;;1.55;;
1106;SDS011;540;49.448;8.612;2022-08-06T04:01:31;4.13;;;1.47;;
1106;SDS011;540;49.448;8.612;2022-08-06T04:04:15;2.50;;;1.27;;
1106;SDS011;540;49.448;8.612;2022-08-06T04:06:54;2.08;;;1.30;;
1106;SDS011;540;49.448;8.612;2022-08-06T04:09:24;2.08;;;1.15;;
1106;SDS011;540;49.448;8.612;2022-08-06T04:12:12;2.50;;;1.30;;
1106;SDS011;540;49.448;8.612;2022-08-06T04:15:01;6.57;;;1.70;;
1106;SDS011;540;49.448;8.612;2022-08-06T04:17:33;3.55;;;1.63;;
1106;SDS011;540;49.448;8.612;2022-08-06T04:20:08;1.60;;;1.45;;
1106;SDS011;540;49.448;8.612;2022-08-06T04:22:39;2.15;;;1.00;;
1106;SDS011;540;49.448;8.612;2022-08-06T04:25:27;2.67;;;1.17;;
1106;SDS011;540;49.448;8.612;2022-08-06T04:28:02;3.35;;;1.38;;
1106;SDS011;540;49.448;8.612;2022-08-06T04:30:31;4.50;;;1.65;;
1106;SDS011;540;49.448;8.612;2022-08-06T04:33:03;3.40;;;1.25;;
1106;SDS011;540;49.448;8.612;2022-08-06T04:35:37;2.22;;;1.33;;
1106;SDS011;540;49.448;8.612;2022-08-06T04:38:27;8.30;;;1.50;;
1106;SDS011;540;49.448;8.612;2022-08-06T04:40:56;4.95;;;1.30;;
1106;SDS011;540;49.448;8.612;2022-08-06T04:43:28;5.82;;;1.38;;
1106;SDS011;540;49.448;8.612;2022-08-06T04:46:17;4.20;;;1.63;;
1106;SDS011;540;49.448;8.612;2022-08-06T04:48:46;2.63;;;1.20;;
1106;SDS011;540;49.448;8.612;2022-08-06T04:51:21;2.85;;;1.40;;
1106;SDS011;540;49.448;8.612;2022-08-06T04:54:11;1.77;;;1.23;;
1106;SDS011;540;49.448;8.612;2022-08-06T04:56:40;3.90;;;1.30;;
1106;SDS011;540;49.448;8.612;2022-08-06T04:59:15;3.08;;;1.50;;
1106;SDS011;540;49.448;8.612;2022-08-06T05:01:44;2.75;;;1.40;;
1106;SDS011;540;49.448;8.612;2022-08-06T05:04:25;3.08;;;1.20;;
1106;SDS011;540;49.448;8.612;2022-08-06T05:07:00;1.35;;;1.10;;
1106;SDS011;540;49.448;8.612;2022-08-06T05:09:37;2.35;;;1.35;;
1106;SDS011;540;49.448;8.612;2022-08-06T05:12:11;1.38;;;1.00;;
1106;SDS011;540;49.448;8.612;2022-08-06T05:14:52;6.28;;;1.50;;
1106;SDS011;540;49.448;8.612;2022-08-06T05:17:23;5.50;;;1.25;;
1106;SDS011;540;49.448;8.612;2022-08-06T05:20:02;3.33;;;1.70;;
1106;SDS011;540;49.448;8.612;2022-08-06T05:22:52;1.88;;;1.30;;
1106;SDS011;540;49.448;8.612;2022-08-06T05:25:29;4.82;;;1.92;;
1106;SDS011;540;49.448;8.612;2022-08-06T05:28:01;2.83;;;1.35;;
1106;SDS011;540;49.448;8.612;2022-08-06T05:33:10;1.52;;;1.27;;
1106;SDS011;540;49.448;8.612;2022-08-06T05:35:42;1.73;;;1.38;;
1106;SDS011;540;49.448;8.612;2022-08-06T05:38:27;2.58;;;1.30;;
1106;SDS011;540;49.448;8.612;2022-08-06T05:40:58;2.67;;;1.10;;
1106;SDS011;540;49.448;8.612;2022-08-06T05:43:27;2.78;;;1.65;;
1106;SDS011;540;49.448;8.612;2022-08-06T05:46:15;2.15;;;1.10;;
1106;SDS011;540;49.448;8.612;2022-08-06T05:48:51;3.57;;;1.40;;
1106;SDS011;540;49.448;8.612;2022-08-06T05:51:25;5.32;;;1.25;;
1106;SDS011;540;49.448;8.612;2022-08-06T05:54:11;3.10;;;1.20;;
1106;SDS011;540;49.448;8.612;2022-08-06T05:56:46;2.38;;;1.42;;
1106;SDS011;540;49.448;8.612;2022-08-06T05:59:20;1.27;;;1.08;;
1106;SDS011;540;49.448;8.612;2022-08-06T06:02:10;1.20;;;1.08;;
1106;SDS011;540;49.448;8.612;2022-08-06T06:04:50;5.40;;;1.48;;
1106;SDS011;540;49.448;8.612;2022-08-06T06:07:38;5.93;;;1.50;;
1106;SDS011;540;49.448;8.612;2022-08-06T06:10:27;2.78;;;1.00;;
1106;SDS011;540;49.448;8.612;2022-08-06T06:13:00;1.60;;;1.00;;
1106;SDS011;540;49.448;8.612;2022-08-06T06:15:49;4.43;;;1.10;;
1106;SDS011;540;49.448;8.612;2022-08-06T06:18:31;2.45;;;1.10;;
1106;SDS011;540;49.448;8.612;2022-08-06T06:21:13;2.00;;;1.08;;
1106;SDS011;540;49.448;8.612;2022-08-06T06:24:00;1.83;;;1.00;;
1106;SDS011;540;49.448;8.612;2022-08-06T06:26:35;3.38;;;1.05;;
1106;SDS011;540;49.448;8.612;2022-08-06T06:29:13;3.17;;;1.00;;
1106;SDS011;540;49.448;8.612;2022-08-06T06:32:17;2.30;;;1.33;;
1106;SDS011;540;49.448;8.612;2022-08-06T06:34:57;6.13;;;1.17;;
1106;SDS011;540;49.448;8.612;2022-08-06T06:37:31;1.10;;;0.90;;
1106;SDS011;540;49.448;8.612;2022-08-06T06:40:09;2.47;;;1.10;;
1106;SDS011;540;49.448;8.612;2022-08-06T06:42:44;3.53;;;1.10;;
1106;SDS011;540;49.448;8.612;2022-08-06T06:45:24;4.55;;;1.02;;
1106;SDS011;540;49.448;8.612;2022-08-06T06:48:18;3.35;;;0.82;;
1106;SDS011;540;49.448;8.612;2022-08-06T06:53:26;1.35;;;0.90;;
1106;SDS011;540;49.448;8.612;2022-08-06T06:56:19;1.05;;;0.82;;
1106;SDS011;540;49.448;8.612;2022-08-06T06:58:58;2.45;;;1.00;;
1106;SDS011;540;49.448;8.612;2022-08-06T07:01:29;3.15;;;0.93;;
1106;SDS011;540;49.448;8.612;2022-08-06T07:04:00;4.15;;;1.00;;
1106;SDS011;540;49.448;8.612;2022-08-06T07:06:33;4.65;;;0.90;;
1106;SDS011;540;49.448;8.612;2022-08-06T07:09:10;3.78;;;0.90;;
1106;SDS011;540;49.448;8.612;2022-08-06T07:12:03;0.88;;;0.60;;
1106;SDS011;540;49.448;8.612;2022-08-06T07:14:53;1.58;;;0.80;;
1106;SDS011;540;49.448;8.612;2022-08-06T07:17:27;1.98;;;0.70;;
1106;SDS011;540;49.448;8.612;2022-08-06T07:20:14;1.85;;;0.80;;
1106;SDS011;540;49.448;8.612;2022-08-06T07:22:45;3.38;;;0.93;;
1106;SDS011;540;49.448;8.612;2022-08-06T07:25:36;2.67;;;0.70;;
1106;SDS011;540;49.448;8.612;2022-08-06T07:28:20;1.38;;;0.60;;
1106;SDS011;540;49.448;8.612;2022-08-06T07:30:54;1.13;;;0.68;;
1106;SDS011;540;49.448;8.612;2022-08-06T07:33:37;1.30;;;0.70;;
1106;SDS011;540;49.448;8.612;2022-08-06T07:36:27;1.52;;;0.65;;
1106;SDS011;540;49.448;8.612;2022-08-06T07:39:04;2.80;;;0.57;;
1106;SDS011;540;49.448;8.612;2022-08-06T07:41:41;3.95;;;1.02;;
1106;SDS011;540;49.448;8.612;2022-08-06T07:44:29;2.05;;;0.60;;
1106;SDS011;540;49.448;8.612;2022-08-06T07:47:22;3.35;;;0.70;;
1106;SDS011;540;49.448;8.612;2022-08-06T07:50:13;1.77;;;0.82;;
1106;SDS011;540;49.448;8.612;2022-08-06T07:52:48;3.08;;;0.60;;
1106;SDS011;540;49.448;8.612;2022-08-06T07:55:19;1.13;;;0.60;;
1106;SDS011;540;49.448;8.612;2022-08-06T07:57:51;1.58;;;0.55;;
1106;SDS011;540;49.448;8.612;2022-08-06T08:00:24;2.67;;;0.65;;
1106;SDS011;540;49.448;8.612;2022-08-06T08:02:54;0.85;;;0.63;;
1106;SDS011;540;49.448;8.612;2022-08-06T08:06:02;2.05;;;0.75;;
1106;SDS011;540;49.448;8.612;2022-08-06T08:08:48;1.83;;;0.50;;
1106;SDS011;540;49.448;8.612;2022-08-06T08:11:22;0.90;;;0.40;;
1106;SDS011;540;49.448;8.612;2022-08-06T08:14:11;2.05;;;0.55;;
1106;SDS011;540;49.448;8.612;2022-08-06T08:16:41;1.50;;;0.77;;
1106;SDS011;540;49.448;8.612;2022-08-06T08:19:19;1.20;;;0.65;;
1106;SDS011;540;49.448;8.612;2022-08-06T08:21:50;1.38;;;0.60;;
1106;SDS011;540;49.448;8.612;2022-08-06T08:24:19;1.33;;;0.80;;
1106;SDS011;540;49.448;8.612;2022-08-06T08:26:47;2.33;;;0.85;;
1106;SDS011;540;49.448;8.612;2022-08-06T08:29:30;1.45;;;0.80;;
1106;SDS011;540;49.448;8.612;2022-08-06T08:32:00;1.80;;;0.68;;
1106;SDS011;540;49.448;8.612;2022-08-06T08:34:40;1.75;;;0.75;;
1106;SDS011;540;49.448;8.612;2022-08-06T08:37:11;2.63;;;0.80;;
1106;SDS011;540;49.448;8.612;2022-08-06T08:39:57;3.13;;;0.73;;
1106;SDS011;540;49.448;8.612;2022-08-06T08:42:27;0.88;;;0.57;;
1106;SDS011;540;49.448;8.612;2022-08-06T08:45:02;1.50;;;0.60;;
1106;SDS011;540;49.448;8.612;2022-08-06T08:47:39;1.30;;;0.63;;
1106;SDS011;540;49.448;8.612;2022-08-06T08:50:19;1.80;;;0.80;;
1106;SDS011;540;49.448;8.612;2022-08-06T08:52:50;1.00;;;0.63;;
1106;SDS011;540;49.448;8.612;2022-08-06T08:55:24;1.92;;;0.50;;
1106;SDS011;540;49.448;8.612;2022-08-06T08:58:12;2.13;;;0.63;;
1106;SDS011;540;49.448;8.612;2022-08-06T09:01:04;2.00;;;0.57;;
1106;SDS011;540;49.448;8.612;2022-08-06T09:03:35;1.88;;;0.65;;
1106;SDS011;540;49.448;8.612;2022-08-06T09:06:12;7.45;;;1.05;;
1106;SDS011;540;49.448;8.612;2022-08-06T09:08:57;1.55;;;0.50;;
1106;SDS011;540;49.448;8.612;2022-08-06T09:14:26;2.08;;;0.68;;
1106;SDS011;540;49.448;8.612;2022-08-06T09:16:59;2.42;;;0.85;;
1106;SDS011;540;49.448;8.612;2022-08-06T09:19:28;1.83;;;0.70;;
1106;SDS011;540;49.448;8.612;2022-08-06T09:22:04;2.13;;;0.82;;
1106;SDS011;540;49.448;8.612;2022-08-06T09:24:36;2.85;;;0.98;;
1106;SDS011;540;49.448;8.612;2022-08-06T09:27:05;3.53;;;1.00;;
1106;SDS011;540;49.448;8.612;2022-08-06T09:29:56;2.55;;;0.68;;
1106;SDS011;540;49.448;8.612;2022-08-06T09:32:41;1.20;;;0.63;;
1106;SDS011;540;49.448;8.612;2022-08-06T09:35:24;1.52;;;0.60;;
1106;SDS011;540;49.448;8.612;2022-08-06T09:38:11;1.67;;;0.70;;
1106;SDS011;540;49.448;8.612;2022-08-06T09:40:44;2.30;;;0.80;;
1106;SDS011;540;49.448;8.612;2022-08-06T09:43:41;1.10;;;0.50;;
1106;SDS011;540;49.448;8.612;2022-08-06T09:46:36;1.60;;;0.65;;
1106;SDS011;540;49.448;8.612;2022-08-06T09:49:06;2.25;;;0.63;;
1106;SDS011;540;49.448;8.612;2022-08-06T09:52:09;1.02;;;0.60;;
1106;SDS011;540;49.448;8.612;2022-08-06T09:54:39;2.50;;;0.80;;
1106;SDS011;540;49.448;8.612;2022-08-06T09:57:10;1.45;;;0.60;;
1106;SDS011;540;49.448;8.612;2022-08-06T09:59:41;1.15;;;0.50;;
1106;SDS011;540;49.448;8.612;2022-08-06T10:02:11;2.67;;;0.60;;
1106;SDS011;540;49.448;8.612;2022-08-06T10:04:40;2.53;;;1.00;;
1106;SDS011;540;49.448;8.612;2022-08-06T10:07:09;4.55;;;0.60;;
1106;SDS011;540;49.448;8.612;2022-08-06T10:09:50;1.05;;;0.63;;
1106;SDS011;540;49.448;8.612;2022-08-06T10:12:22;0.90;;;0.60;;
1106;SDS011;540;49.448;8.612;2022-08-06T10:14:52;1.73;;;0.57;;
1106;SDS011;540;49.448;8.612;2022-08-06T10:17:22;1.20;;;0.50;;
1106;SDS011;540;49.448;8.612;2022-08-06T10:20:03;6.10;;;0.68;;
1106;SDS011;540;49.448;8.612;2022-08-06T10:22:35;1.70;;;0.60;;
1106;SDS011;540;49.448;8.612;2022-08-06T10:25:06;2.83;;;0.55;;
1106;SDS011;540;49.448;8.612;2022-08-06T10:27:39;1.48;;;0.85;;
1106;SDS011;540;49.448;8.612;2022-08-06T10:30:09;0.70;;;0.40;;
1106;SDS011;540;49.448;8.612;2022-08-06T10:32:37;1.45;;;0.60;;
1106;SDS011;540;49.448;8.612;2022-08-06T10:35:14;1.50;;;0.75;;
1106;SDS011;540;49.448;8.612;2022-08-06T10:37:47;1.42;;;0.93;;
1106;SDS011;540;49.448;8.612;2022-08-06T10:40:19;1.83;;;1.23;;
1106;SDS011;540;49.448;8.612;2022-08-06T10:42:58;3.03;;;1.67;;
1106;SDS011;540;49.448;8.612;2022-08-06T10:45:28;2.35;;;1.25;;
1106;SDS011;540;49.448;8.612;2022-08-06T10:48:14;1.95;;;0.90;;
1106;SDS011;540;49.448;8.612;2022-08-06T10:51:03;2.25;;;0.77;;
1106;SDS011;540;49.448;8.612;2022-08-06T10:53:33;2.65;;;0.63;;
1106;SDS011;540;49.448;8.612;2022-08-06T10:56:22;1.85;;;1.10;;
1106;SDS011;540;49.448;8.612;2022-08-06T10:59:00;0.63;;;0.60;;
1106;SDS011;540;49.448;8.612;2022-08-06T11:01:31;3.30;;;0.90;;
1106;SDS011;540;49.448;8.612;2022-08-06T11:04:12;1.65;;;0.47;;
1106;SDS011;540;49.448;8.612;2022-08-06T11:07:00;1.88;;;0.50;;
1106;SDS011;540;49.448;8.612;2022-08-06T11:10:16;0.80;;;0.50;;
1106;SDS011;540;49.448;8.612;2022-08-06T11:12:57;0.85;;;0.50;;
1106;SDS011;540;49.448;8.612;2022-08-06T11:15:38;0.57;;;0.50;;
1106;SDS011;540;49.448;8.612;2022-08-06T11:18:10;1.75;;;0.45;;
1106;SDS011;540;49.448;8.612;2022-08-06T11:20:47;1.92;;;0.60;;
1106;SDS011;540;49.448;8.612;2022-08-06T11:23:23;0.90;;;0.45;;
1106;SDS011;540;49.448;8.612;2022-08-06T11:26:12;1.52;;;0.65;;
1106;SDS011;540;49.448;8.612;2022-08-06T11:29:04;1.52;;;0.60;;
1106;SDS011;540;49.448;8.612;2022-08-06T11:31:44;3.92;;;0.70;;
1106;SDS011;540;49.448;8.612;2022-08-06T11:34:22;0.55;;;0.50;;
1106;SDS011;540;49.448;8.612;2022-08-06T11:40:24;2.97;;;0.60;;
1106;SDS011;540;49.448;8.612;2022-08-06T11:42:54;3.65;;;1.15;;
1106;SDS011;540;49.448;8.612;2022-08-06T11:45:22;3.47;;;1.27;;
1106;SDS011;540;49.448;8.612;2022-08-06T11:48:11;0.80;;;0.50;;
1106;SDS011;540;49.448;8.612;2022-08-06T11:51:00;1.08;;;0.52;;
1106;SDS011;540;49.448;8.612;2022-08-06T11:54:09;1.65;;;0.68;;
1106;SDS011;540;49.448;8.612;2022-08-06T12:00:04;1.63;;;0.65;;
1106;SDS011;540;49.448;8.612;2022-08-06T12:02:49;1.23;;;0.50;;
1106;SDS011;540;49.448;8.612;2022-08-06T12:05:36;1.27;;;0.63;;
1106;SDS011;540;49.448;8.612;2022-08-06T12:08:22;0.77;;;0.52;;
1106;SDS011;540;49.448;8.612;2022-08-06T12:11:24;1.77;;;0.90;;
1106;SDS011;540;49.448;8.612;2022-08-06T12:14:04;0.70;;;0.40;;
1106;SDS011;540;49.448;8.612;2022-08-06T12:19:35;0.85;;;0.40;;
1106;SDS011;540;49.448;8.612;2022-08-06T12:22:30;0.85;;;0.47;;
1106;SDS011;540;49.448;8.612;2022-08-06T12:24:59;1.10;;;0.40;;
1106;SDS011;540;49.448;8.612;2022-08-06T12:27:37;1.23;;;0.70;;
1106;SDS011;540;49.448;8.612;2022-08-06T12:30:19;0.63;;;0.50;;
1106;SDS011;540;49.448;8.612;2022-08-06T12:33:02;1.23;;;0.80;;
1106;SDS011;540;49.448;8.612;2022-08-06T12:35:47;1.63;;;0.40;;
1106;SDS011;540;49.448;8.612;2022-08-06T12:38:17;1.52;;;0.40;;
1106;SDS011;540;49.448;8.612;2022-08-06T12:40:54;1.70;;;0.43;;
1106;SDS011;540;49.448;8.612;2022-08-06T12:43:22;0.38;;;0.30;;
1106;SDS011;540;49.448;8.612;2022-08-06T12:46:11;1.63;;;0.50;;
1106;SDS011;540;49.448;8.612;2022-08-06T12:48:45;2.47;;;0.85;;
1106;SDS011;540;49.448;8.612;2022-08-06T12:51:15;0.30;;;0.30;;
1106;SDS011;540;49.448;8.612;2022-08-06T12:53:54;0.40;;;0.40;;
1106;SDS011;540;49.448;8.612;2022-08-06T12:56:24;1.15;;;0.60;;
1106;SDS011;540;49.448;8.612;2022-08-06T12:58:59;3.50;;;0.50;;
1106;SDS011;540;49.448;8.612;2022-08-06T13:01:29;0.70;;;0.40;;
1106;SDS011;540;49.448;8.612;2022-08-06T13:04:18;0.95;;;0.60;;
1106;SDS011;540;49.448;8.612;2022-08-06T13:06:56;1.83;;;0.40;;
1106;SDS011;540;49.448;8.612;2022-08-06T13:09:35;0.30;;;0.30;;
1106;SDS011;540;49.448;8.612;2022-08-06T13:12:23;1.15;;;0.65;;
1106;SDS011;540;49.448;8.612;2022-08-06T13:15:13;1.73;;;0.60;;
1106;SDS011;540;49.448;8.612;2022-08-06T13:18:01;1.83;;;0.70;;
1106;SDS011;540;49.448;8.612;2022-08-06T13:20:51;0.93;;;0.47;;
1106;SDS011;540;49.448;8.612;2022-08-06T13:23:28;1.92;;;0.50;;
1106;SDS011;540;49.448;8.612;2022-08-06T13:26:11;0.95;;;0.40;;
1106;SDS011;540;49.448;8.612;2022-08-06T13:29:05;1.00;;;0.40;;
1106;SDS011;540;49.448;8.612;2022-08-06T13:32:02;1.10;;;0.57;;
1106;SDS011;540;49.448;8.612;2022-08-06T13:34:53;1.55;;;0.60;;
1106;SDS011;540;49.448;8.612;2022-08-06T13:40:34;0.40;;;0.40;;
1106;SDS011;540;49.448;8.612;2022-08-06T13:43:08;0.77;;;0.52;;
1106;SDS011;540;49.448;8.612;2022-08-06T13:46:03;2.55;;;0.50;;
1106;SDS011;540;49.448;8.612;2022-08-06T13:48:33;2.17;;;0.45;;
1106;SDS011;540;49.448;8.612;2022-08-06T13:51:03;0.68;;;0.47;;
1106;SDS011;540;49.448;8.612;2022-08-06T13:56:14;2.10;;;0.65;;
1106;SDS011;540;49.448;8.612;2022-08-06T13:58:56;1.25;;;0.85;;
1106;SDS011;540;49.448;8.612;2022-08-06T14:01:24;1.77;;;1.02;;
1106;SDS011;540;49.448;8.612;2022-08-06T14:04:11;4.05;;;0.50;;
1106;SDS011;540;49.448;8.612;2022-08-06T14:06:40;1.83;;;0.68;;
1106;SDS011;540;49.448;8.612;2022-08-06T14:09:11;2.17;;;0.57;;
1106;SDS011;540;49.448;8.612;2022-08-06T14:11:48;0.63;;;0.45;;
1106;SDS011;540;49.448;8.612;2022-08-06T14:14:21;1.42;;;0.70;;
1106;SDS011;540;49.448;8.612;2022-08-06T14:16:52;1.10;;;0.43;;
1106;SDS011;540;49.448;8.612;2022-08-06T14:19:21;0.80;;;0.43;;
1106;SDS011;540;49.448;8.612;2022-08-06T14:22:09;2.58;;;0.50;;
1106;SDS011;540;49.448;8.612;2022-08-06T14:24:37;0.82;;;0.43;;
1106;SDS011;540;49.448;8.612;2022-08-06T14:27:18;0.82;;;0.70;;
1106;SDS011;540;49.448;8.612;2022-08-06T14:29:50;4.82;;;0.70;;
1106;SDS011;540;49.448;8.612;2022-08-06T14:32:39;4.40;;;0.60;;
1106;SDS011;540;49.448;8.612;2022-08-06T14:35:11;1.13;;;0.40;;
1106;SDS011;540;49.448;8.612;2022-08-06T14:37:39;1.38;;;0.55;;
1106;SDS011;540;49.448;8.612;2022-08-06T14:40:18;1.83;;;0.60;;
1106;SDS011;540;49.448;8.612;2022-08-06T14:43:27;1.63;;;0.63;;
1106;SDS011;540;49.448;8.612;2022-08-06T14:46:24;0.40;;;0.40;;
1106;SDS011;540;49.448;8.612;2022-08-06T14:48:55;0.73;;;0.43;;
1106;SDS011;540;49.448;8.612;2022-08-06T14:51:24;0.73;;;0.40;;
1106;SDS011;540;49.448;8.612;2022-08-06T14:54:13;0.40;;;0.40;;
1106;SDS011;540;49.448;8.612;2022-08-06T14:56:42;1.77;;;0.40;;
1106;SDS011;540;49.448;8.612;2022-08-06T14:59:18;1.38;;;0.40;;
1106;SDS011;540;49.448;8.612;2022-08-06T15:01:48;1.27;;;0.50;;
1106;SDS011;540;49.448;8.612;2022-08-06T15:04:17;0.30;;;0.30;;
1106;SDS011;540;49.448;8.612;2022-08-06T15:06:50;0.30;;;0.30;;
1106;SDS011;540;49.448;8.612;2022-08-06T15:09:24;4.60;;;0.70;;
1106;SDS011;540;49.448;8.612;2022-08-06T15:12:13;2.30;;;0.55;;
1106;SDS011;540;49.448;8.612;2022-08-06T15:15:02;1.90;;;0.52;;
1106;SDS011;540;49.448;8.612;2022-08-06T15:17:35;3.88;;;0.70;;
1106;SDS011;540;49.448;8.612;2022-08-06T15:20:23;1.15;;;0.57;;
1106;SDS011;540;49.448;8.612;2022-08-06T15:22:52;0.75;;;0.30;;
1106;SDS011;540;49.448;8.612;2022-08-06T15:25:21;1.52;;;0.60;;
1106;SDS011;540;49.448;8.612;2022-08-06T15:28:09;1.33;;;0.50;;
1106;SDS011;540;49.448;8.612;2022-08-06T15:30:37;2.58;;;0.60;;
1106;SDS011;540;49.448;8.612;2022-08-06T15:33:13;1.42;;;0.38;;
1106;SDS011;540;49.448;8.612;2022-08-06T15:35:42;1.75;;;0.40;;
1106;SDS011;540;49.448;8.612;2022-08-06T15:38:23;1.35;;;0.50;;
1106;SDS011;540;49.448;8.612;2022-08-06T15:40:52;2.35;;;1.30;;
1106;SDS011;540;49.448;8.612;2022-08-06T15:43:20;5.32;;;0.77;;
1106;SDS011;540;49.448;8.612;2022-08-06T15:45:51;0.88;;;0.40;;
1106;SDS011;540;49.448;8.612;2022-08-06T15:48:25;2.25;;;0.60;;
1106;SDS011;540;49.448;8.612;2022-08-06T15:50:55;0.65;;;0.50;;
1106;SDS011;540;49.448;8.612;2022-08-06T15:53:43;2.58;;;0.40;;
1106;SDS011;540;49.448;8.612;2022-08-06T15:56:23;2.33;;;0.95;;
1106;SDS011;540;49.448;8.612;2022-08-06T15:59:04;4.28;;;1.33;;
1106;SDS011;540;49.448;8.612;2022-08-06T16:01:38;0.60;;;0.40;;
1106;SDS011;540;49.448;8.612;2022-08-06T16:04:27;1.02;;;0.50;;
1106;SDS011;540;49.448;8.612;2022-08-06T16:07:01;3.22;;;0.57;;
1106;SDS011;540;49.448;8.612;2022-08-06T16:09:30;2.45;;;0.50;;
1106;SDS011;540;49.448;8.612;2022-08-06T16:12:18;2.35;;;0.47;;
1106;SDS011;540;49.448;8.612;2022-08-06T16:14:47;0.43;;;0.43;;
1106;SDS011;540;49.448;8.612;2022-08-06T16:17:23;0.88;;;0.60;;
1106;SDS011;540;49.448;8.612;2022-08-06T16:20:13;0.40;;;0.40;;
1106;SDS011;540;49.448;8.612;2022-08-06T16:22:47;0.55;;;0.40;;
1106;SDS011;540;49.448;8.612;2022-08-06T16:25:17;0.80;;;0.50;;
1106;SDS011;540;49.448;8.612;2022-08-06T16:27:46;2.45;;;0.52;;
1106;SDS011;540;49.448;8.612;2022-08-06T16:30:17;3.75;;;0.50;;
1106;SDS011;540;49.448;8.612;2022-08-06T16:32:46;1.42;;;0.50;;
1106;SDS011;540;49.448;8.612;2022-08-06T16:35:15;1.73;;;0.50;;
1106;SDS011;540;49.448;8.612;2022-08-06T16:37:47;0.57;;;0.40;;
1106;SDS011;540;49.448;8.612;2022-08-06T16:40:18;1.25;;;0.60;;
1106;SDS011;540;49.448;8.612;2022-08-06T16:42:46;4.93;;;0.60;;
1106;SDS011;540;49.448;8.612;2022-08-06T16:45:15;2.15;;;0.60;;
1106;SDS011;540;49.448;8.612;2022-08-06T16:47:44;1.52;;;0.50;;
1106;SDS011;540;49.448;8.612;2022-08-06T16:50:34;0.50;;;0.43;;
1106;SDS011;540;49.448;8.612;2022-08-06T16:53:06;2.75;;;0.50;;
1106;SDS011;540;49.448;8.612;2022-08-06T16:55:54;0.85;;;0.50;;
1106;SDS011;540;49.448;8.612;2022-08-06T16:58:22;1.83;;;0.93;;
1106;SDS011;540;49.448;8.612;2022-08-06T17:01:02;3.72;;;1.98;;
1106;SDS011;540;49.448;8.612;2022-08-06T17:03:50;1.60;;;0.80;;
1106;SDS011;540;49.448;8.612;2022-08-06T17:06:26;3.80;;;0.70;;
1106;SDS011;540;49.448;8.612;2022-08-06T17:09:00;1.15;;;0.57;;